Vectis Isle — 2GAS8 — position and weather

sailwx.info

Track history (hours):
 
Tides and Currents Weather Stations Pressure Air Temp Water Temp Dewpoint Dewpoint Depression Visibility Wind Speed Wind Dir Waves Ship Positions

Vectis Isle

Last reported at 2018-Jun-18 03:30 UTC. Time now 2018-Jun-18 03:39 UTC.
Position N 28°47' W 014°41'.

Length 124 m; draft 6.1 m.

Type: Cargo ship. MMSI: 235095836.

Date/timePositionNaut miles runAvg speedWind from/ knotsBaromVisibWave heightAir tempDewpointWater temp
2018-Jun-18 03:30N 28°47' W 014°41'510.2
2018-Jun-18 03:00N 28°43' W 014°45'510.7
2018-Jun-18 02:30N 28°39' W 014°49'510.2
2018-Jun-18 02:00N 28°36' W 014°53'510.0
2018-Jun-18 01:30N 28°32' W 014°57'510.2
2018-Jun-18 00:59N 28°28' W 015°02'5 9.7
2018-Jun-18 00:30N 28°25' W 015°05'5 9.8
2018-Jun-18 00:00N 28°21' W 015°09'5 9.8
2018-Jun-17 23:30N 28°18' W 015°13'5 9.7
2018-Jun-17 23:00N 28°15' W 015°17'510.2
2018-Jun-17 22:30N 28°11' W 015°21'3 4.3
2018-Jun-17 21:50N 28°10' W 015°24'0 0.0
2018-Jun-17 21:23N 28°10' W 015°24'0 0.0
2018-Jun-17 20:50N 28°10' W 015°24'0 0.0
2018-Jun-17 20:23N 28°10' W 015°24'0 0.0
2018-Jun-17 19:53N 28°10' W 015°24'0 0.0
2018-Jun-17 19:23N 28°10' W 015°24'0 0.0
2018-Jun-17 18:53N 28°10' W 015°24'0 0.0
2018-Jun-17 18:23N 28°10' W 015°24'0 0.0
2018-Jun-17 17:56N 28°10' W 015°24'0 0.0
2018-Jun-17 17:26N 28°10' W 015°24'0 0.0
2018-Jun-17 16:56N 28°10' W 015°24'0 0.0
2018-Jun-17 16:26N 28°10' W 015°24'0 0.0
2018-Jun-17 15:56N 28°10' W 015°24'0 0.1
2018-Jun-17 15:30N 28°09' W 015°24'2 3.2
2018-Jun-17 15:00N 28°08' W 015°23'1 2.4
2018-Jun-17 14:30N 28°07' W 015°23'3 5.9
2018-Jun-17 14:00N 28°05' W 015°21'510.4
2018-Jun-17 13:30N 28°00' W 015°17'5 9.8
2018-Jun-17 13:00N 27°56' W 015°16'5 9.8
2018-Jun-17 12:30N 27°51' W 015°16'5 9.6
2018-Jun-17 12:00N 27°46' W 015°17'5 9.5
2018-Jun-17 11:30N 27°41' W 015°17'5 9.1
2018-Jun-17 11:00N 27°36' W 015°17'  
2018-Jun-08 12:28N 05°26' E 000°04'511.4
2018-Jun-08 12:00N 05°31' E 000°05'510.5
2018-Jun-08 11:30N 05°36' E 000°04'4 7.5
2018-Jun-08 10:58N 05°38' E 000°01'0 0.4
2018-Jun-08 10:28N 05°38' E 000°00'0 0.0
2018-Jun-08 09:58N 05°38' E 000°00'0 0.0
2018-Jun-08 09:28N 05°38' E 000°00'0 0.0
2018-Jun-08 08:58N 05°38' E 000°00'0 0.0
2018-Jun-08 08:28N 05°38' E 000°00'0 0.0
2018-Jun-08 07:58N 05°38' E 000°00'0 0.0
2018-Jun-08 07:28N 05°38' E 000°00'0 0.0
2018-Jun-08 06:58N 05°38' E 000°00'0 0.0
2018-Jun-08 06:28N 05°38' E 000°00'0 0.0
2018-Jun-08 05:58N 05°38' E 000°00'0 0.0
2018-Jun-08 05:28N 05°38' E 000°00'0 0.0
2018-Jun-08 04:58N 05°38' E 000°00'0 0.0
2018-Jun-08 04:28N 05°38' E 000°00'0 0.0
2018-Jun-08 03:58N 05°38' E 000°00'  
Track history (hours):
 
Tides and Currents Weather Stations Pressure Air Temp Water Temp Dewpoint Dewpoint Depression Visibility Wind Speed Wind Dir Waves Ship Positions

Vectis Isle

Last reported at 2018-Jun-18 03:30 UTC. Time now 2018-Jun-18 03:39 UTC.
Position N 28°47' W 014°41'.

Length 124 m; draft 6.1 m.

Type: Cargo ship. MMSI: 235095836.

Date/timePositionNaut miles runAvg speedWind from/ knotsBaromVisibWave heightAir tempDewpointWater temp
2018-Jun-18 03:30N 28°47' W 014°41'510.2
2018-Jun-18 03:00N 28°43' W 014°45'510.7
2018-Jun-18 02:30N 28°39' W 014°49'510.2
2018-Jun-18 02:00N 28°36' W 014°53'510.0
2018-Jun-18 01:30N 28°32' W 014°57'510.2
2018-Jun-18 00:59N 28°28' W 015°02'5 9.7
2018-Jun-18 00:30N 28°25' W 015°05'5 9.8
2018-Jun-18 00:00N 28°21' W 015°09'5 9.8
2018-Jun-17 23:30N 28°18' W 015°13'5 9.7
2018-Jun-17 23:00N 28°15' W 015°17'510.2
2018-Jun-17 22:30N 28°11' W 015°21'3 4.3
2018-Jun-17 21:50N 28°10' W 015°24'0 0.0
2018-Jun-17 21:23N 28°10' W 015°24'0 0.0
2018-Jun-17 20:50N 28°10' W 015°24'0 0.0
2018-Jun-17 20:23N 28°10' W 015°24'0 0.0
2018-Jun-17 19:53N 28°10' W 015°24'0 0.0
2018-Jun-17 19:23N 28°10' W 015°24'0 0.0
2018-Jun-17 18:53N 28°10' W 015°24'0 0.0
2018-Jun-17 18:23N 28°10' W 015°24'0 0.0
2018-Jun-17 17:56N 28°10' W 015°24'0 0.0
2018-Jun-17 17:26N 28°10' W 015°24'0 0.0
2018-Jun-17 16:56N 28°10' W 015°24'0 0.0
2018-Jun-17 16:26N 28°10' W 015°24'0 0.0
2018-Jun-17 15:56N 28°10' W 015°24'0 0.1
2018-Jun-17 15:30N 28°09' W 015°24'2 3.2
2018-Jun-17 15:00N 28°08' W 015°23'1 2.4
2018-Jun-17 14:30N 28°07' W 015°23'3 5.9
2018-Jun-17 14:00N 28°05' W 015°21'510.4
2018-Jun-17 13:30N 28°00' W 015°17'5 9.8
2018-Jun-17 13:00N 27°56' W 015°16'5 9.8
2018-Jun-17 12:30N 27°51' W 015°16'5 9.6
2018-Jun-17 12:00N 27°46' W 015°17'5 9.5
2018-Jun-17 11:30N 27°41' W 015°17'5 9.1
2018-Jun-17 11:00N 27°36' W 015°17'  
2018-Jun-08 12:28N 05°26' E 000°04'511.4
2018-Jun-08 12:00N 05°31' E 000°05'510.5
2018-Jun-08 11:30N 05°36' E 000°04'4 7.5
2018-Jun-08 10:58N 05°38' E 000°01'0 0.4
2018-Jun-08 10:28N 05°38' E 000°00'0 0.0
2018-Jun-08 09:58N 05°38' E 000°00'0 0.0
2018-Jun-08 09:28N 05°38' E 000°00'0 0.0
2018-Jun-08 08:58N 05°38' E 000°00'0 0.0
2018-Jun-08 08:28N 05°38' E 000°00'0 0.0
2018-Jun-08 07:58N 05°38' E 000°00'0 0.0
2018-Jun-08 07:28N 05°38' E 000°00'0 0.0
2018-Jun-08 06:58N 05°38' E 000°00'0 0.0
2018-Jun-08 06:28N 05°38' E 000°00'0 0.0
2018-Jun-08 05:58N 05°38' E 000°00'0 0.0
2018-Jun-08 05:28N 05°38' E 000°00'0 0.0
2018-Jun-08 04:58N 05°38' E 000°00'0 0.0
2018-Jun-08 04:28N 05°38' E 000°00'0 0.0
2018-Jun-08 03:58N 05°38' E 000°00'  

Dump ship's entire track history